createdAt,value
2022-11-30T00:13:01.523Z,32.1
2022-11-30T00:28:11.151Z,28.5
2022-11-30T00:43:20.626Z,26.1
2022-11-30T00:58:32.450Z,27.8
2022-11-30T01:13:44.722Z,23.9
2022-11-30T01:28:54.061Z,24.7
2022-11-30T01:44:03.703Z,24
2022-11-30T01:59:15.978Z,23.7
2022-11-30T02:14:25.592Z,22.9
2022-11-30T02:29:34.870Z,21.5
2022-11-30T02:44:47.928Z,21.6
2022-11-30T02:59:59.083Z,20.5
2022-11-30T03:15:09.040Z,19.6
2022-11-30T03:30:19.079Z,21.7
2022-11-30T03:45:31.921Z,20.9
2022-11-30T04:00:44.538Z,21.9
2022-11-30T04:15:54.611Z,21.3
2022-11-30T04:31:05.681Z,21.2
2022-11-30T04:46:15.854Z,21.1
2022-11-30T05:01:26.052Z,22.7
2022-11-30T05:16:38.403Z,20.7
2022-11-30T05:31:48.508Z,21.3
2022-11-30T05:46:58.607Z,26.4
2022-11-30T06:02:08.687Z,26.4
2022-11-30T06:17:18.957Z,28.6
2022-11-30T06:32:28.478Z,26.1
2022-11-30T06:47:38.009Z,25.2
2022-11-30T07:02:48.919Z,28.2
2022-11-30T07:17:58.199Z,26.3
2022-11-30T07:33:08.048Z,25.1
2022-11-30T07:48:17.675Z,25.1
2022-11-30T08:03:26.936Z,25.8
2022-11-30T08:18:38.844Z,27.8
2022-11-30T08:33:48.035Z,30.1
2022-11-30T08:49:21.307Z,29.4
2022-11-30T09:04:35.343Z,30.3
2022-11-30T09:19:45.170Z,29.9
2022-11-30T09:34:54.778Z,28.6
2022-11-30T09:50:03.753Z,29.5
2022-11-30T10:05:19.187Z,34.8
2022-11-30T10:20:32.103Z,32.3
2022-11-30T10:35:41.746Z,34.9
2022-11-30T10:50:51.379Z,33.6
2022-11-30T11:06:01.199Z,34.6
2022-11-30T11:21:10.985Z,38.4
2022-11-30T11:36:20.337Z,36.7
2022-11-30T11:51:29.806Z,35.3
2022-11-30T12:06:39.329Z,36.1
2022-11-30T12:21:48.850Z,35
2022-11-30T12:36:58.100Z,35
2022-11-30T12:52:07.513Z,37.3
2022-11-30T13:07:19.568Z,36.2
2022-11-30T13:22:28.569Z,35.3
2022-11-30T13:37:37.970Z,37.6
2022-11-30T13:52:47.970Z,39.6
2022-11-30T14:08:01.193Z,40.1
2022-11-30T14:23:10.997Z,36.9
2022-11-30T14:38:22.344Z,43
2022-11-30T14:53:31.500Z,37.5
2022-11-30T15:08:41.074Z,40.3
2022-11-30T15:23:53.608Z,33.5
2022-11-30T15:39:04.334Z,29.7
2022-11-30T15:54:16.084Z,26.5
2022-11-30T16:09:27.982Z,26.9
2022-11-30T16:24:37.693Z,30
2022-11-30T16:39:47.712Z,31.7
2022-11-30T16:55:00.960Z,28.1
2022-11-30T17:10:10.559Z,29.9
2022-11-30T17:25:19.703Z,30.7
2022-11-30T17:40:29.095Z,25.9
2022-11-30T17:55:38.178Z,29.9
2022-11-30T18:10:47.426Z,28.1
2022-11-30T18:25:57.013Z,28.1
2022-11-30T18:41:08.890Z,28
2022-11-30T18:56:18.466Z,28.4
2022-11-30T19:11:28.024Z,26.7
2022-11-30T19:26:40.441Z,32.8
2022-11-30T19:41:50.123Z,39.7
2022-11-30T19:56:59.494Z,39.1
2022-11-30T20:12:08.953Z,42.4
2022-11-30T20:27:18.184Z,40.3
2022-11-30T20:42:27.540Z,44.3
2022-11-30T20:57:37.030Z,38.1
2022-11-30T21:12:46.525Z,38.6
2022-11-30T21:27:55.818Z,40.7
2022-11-30T21:43:05.100Z,40.5
2022-11-30T21:58:14.768Z,41.7
2022-11-30T22:13:24.433Z,40.5
2022-11-30T22:28:34.000Z,40.8
2022-11-30T22:43:43.305Z,39.1
2022-11-30T22:58:52.715Z,37.2
2022-11-30T23:14:01.610Z,35
2022-11-30T23:29:10.457Z,35.7
2022-11-30T23:44:20.129Z,36.1
2022-11-30T23:59:29.617Z,36.9
